Time;durP1;ratioP1;P1;durP2;ratioP2;P2;SDS_P1;SDS_P2;PMS_P1;PMS_P2;Temp;Humidity;BMP_temperature;BMP_pressure;BME280_temperature;BME280_humidity;BME280_pressure;Samples;Min_cycle;Max_cycle;Signal;HPM_P1;HPM_P2
2022/11/02 00:05:40;;;;;;;2.70;1.60;;;;;;;8.51;100.00;98472.25;18569660;32;20090;-62
2022/11/02 00:15:42;;;;;;;1.77;1.27;;;;;;;8.71;100.00;98469.97;18562626;31;20053;-62
2022/11/02 00:25:47;;;;;;;4.27;1.30;;;;;;;8.85;100.00;98473.22;18568449;32;20124;-64
2022/11/02 00:35:50;;;;;;;;;;;;;;;8.97;100.00;98465.09;18568082;32;20053;-65
2022/11/02 00:45:53;;;;;;;1.70;1.20;;;;;;;9.05;100.00;98475.50;18552473;32;19944;-62
2022/11/02 00:55:55;;;;;;;3.10;1.40;;;;;;;9.17;100.00;98467.38;18566424;32;20071;-62
2022/11/02 01:05:59;;;;;;;1.67;1.37;;;;;;;9.29;100.00;98483.50;18566091;32;20461;-63
2022/11/02 01:16:05;;;;;;;2.53;1.50;;;;;;;9.43;100.00;98476.75;18565397;32;20049;-62
2022/11/02 01:26:09;;;;;;;2.90;1.73;;;;;;;9.50;100.00;98473.91;18564628;32;20467;-62
2022/11/02 01:36:14;;;;;;;2.30;1.70;;;;;;;9.57;100.00;98479.16;18564239;32;20075;-62
2022/11/02 01:46:41;;;;;;;2.97;2.00;;;;;;;9.62;100.00;98471.13;18563626;32;20108;-62
2022/11/02 01:56:48;;;;;;;2.47;1.73;;;;;;;9.69;100.00;98458.31;18562307;32;20475;-62
2022/11/02 02:06:53;;;;;;;1.57;1.37;;;;;;;9.76;100.00;98453.56;18541356;32;20112;-62
2022/11/02 02:17:10;;;;;;;2.43;1.23;;;;;;;9.80;100.00;98440.41;18561889;32;20417;-62
2022/11/02 02:27:50;;;;;;;2.43;1.33;;;;;;;9.82;100.00;98441.75;18561481;32;20136;-62
2022/11/02 02:38:15;;;;;;;2.07;1.20;;;;;;;9.77;100.00;98440.88;18561080;32;20053;-62
2022/11/02 02:48:20;;;;;;;3.12;1.35;;;;;;;9.67;100.00;98446.91;18560628;32;20082;-62
2022/11/02 02:58:30;;;;;;;1.53;1.30;;;;;;;9.56;100.00;98443.22;18559968;32;20064;-62
2022/11/02 03:08:37;;;;;;;3.40;1.40;;;;;;;9.32;100.00;98450.66;18564106;32;20071;-62
2022/11/02 03:19:10;;;;;;;1.60;1.20;;;;;;;9.27;100.00;98447.88;18572603;32;20082;-62
2022/11/02 03:29:22;;;;;;;1.80;1.40;;;;;;;9.32;100.00;98442.56;18572276;32;20053;-62
2022/11/02 03:39:34;;;;;;;2.20;1.37;;;;;;;9.26;100.00;98446.22;18557495;32;20112;-62
2022/11/02 03:49:40;;;;;;;1.93;1.30;;;;;;;9.20;100.00;98460.69;18557333;32;20410;-62
2022/11/02 03:59:43;;;;;;;2.43;1.50;;;;;;;9.08;100.00;98477.72;18431091;32;20054;-62
2022/11/02 04:09:45;;;;;;;1.90;1.20;;;;;;;8.98;100.00;98480.25;18430620;32;20107;-62
2022/11/02 04:19:48;;;;;;;4.63;1.53;;;;;;;8.94;100.00;98485.28;18429690;32;20105;-62
2022/11/02 04:29:51;;;;;;;1.50;1.30;;;;;;;9.00;100.00;98488.91;18475159;32;20086;-62
2022/11/02 04:39:53;;;;;;;1.80;1.30;;;;;;;9.05;100.00;98499.00;18501751;32;20096;-65
2022/11/02 04:49:56;;;;;;;4.20;1.40;;;;;;;8.91;100.00;98498.44;18501926;32;20053;-65
2022/11/02 05:00:00;;;;;;;2.23;1.30;;;;;;;8.91;100.00;98506.53;18558063;32;20072;-62
2022/11/02 05:10:03;;;;;;;2.20;1.13;;;;;;;8.85;100.00;98513.69;18565865;32;20083;-65
2022/11/02 05:20:07;;;;;;;5.07;1.00;;;;;;;8.91;100.00;98517.31;18565117;32;20065;-65
2022/11/02 05:30:10;;;;;;;1.60;1.00;;;;;;;8.97;100.00;98524.44;18564077;32;20057;-65
2022/11/02 05:40:13;;;;;;;1.33;0.83;;;;;;;8.84;100.00;98535.50;18564010;32;20361;-65
2022/11/02 05:50:15;;;;;;;1.20;0.70;;;;;;;8.67;100.00;98533.53;18563506;32;20087;-64
2022/11/02 06:00:19;;;;;;;1.90;0.93;;;;;;;8.54;100.00;98542.69;18410904;32;20566;-64
2022/11/02 06:10:22;;;;;;;2.30;1.03;;;;;;;8.51;100.00;98556.66;18423811;32;20441;-64
2022/11/02 06:20:24;;;;;;;2.37;1.00;;;;;;;8.47;100.00;98558.97;18423190;32;20088;-65
2022/11/02 06:30:27;;;;;;;2.40;1.00;;;;;;;8.40;100.00;98570.88;18532279;32;20072;-64
2022/11/02 06:40:30;;;;;;;1.90;0.77;;;;;;;8.40;100.00;98584.34;18546486;32;20041;-64
2022/11/02 06:50:33;;;;;;;2.73;0.77;;;;;;;8.43;100.00;98608.97;18546131;32;20052;-64
2022/11/02 07:00:38;;;;;;;2.30;1.13;;;;;;;8.46;100.00;98611.25;18559839;32;20357;-64
2022/11/02 07:10:43;;;;;;;3.87;1.03;;;;;;;8.53;100.00;98627.31;18546151;32;20057;-64
2022/11/02 07:20:46;;;;;;;3.13;1.00;;;;;;;8.69;100.00;98644.69;18559362;32;20052;-64
2022/11/02 07:30:53;;;;;;;2.67;0.83;;;;;;;8.85;100.00;98653.13;18552626;32;20061;-64
2022/11/02 07:40:58;;;;;;;1.87;0.60;;;;;;;9.08;100.00;98655.78;18558975;32;20064;-64
2022/11/02 07:51:10;;;;;;;4.00;0.80;;;;;;;9.43;100.00;98663.03;18559180;32;20442;-64
2022/11/02 08:01:13;;;;;;;2.90;0.60;;;;;;;9.73;100.00;98672.81;18555573;32;20063;-64
2022/11/02 08:11:17;;;;;;;;;;;;;;;9.83;100.00;98678.41;18556460;32;20145;-64
2022/11/02 08:21:20;;;;;;;1.30;0.70;;;;;;;10.01;100.00;98687.41;18569267;32;19996;-65
2022/11/02 08:32:37;;;;;;;;;;;;;;;;;;;;;
2022/11/02 08:42:45;;;;;;;3.08;0.90;;;;;;;11.19;100.00;98704.81;18567535;32;20052;-65
2022/11/02 08:52:49;;;;;;;4.23;1.00;;;;;;;12.20;100.00;98713.69;18539850;32;20049;-64
2022/11/02 09:03:06;;;;;;;2.17;0.98;;;;;;;13.00;100.00;98697.56;18566240;32;20090;-63
2022/11/02 09:13:12;;;;;;;3.00;0.62;;;;;;;13.59;100.00;98706.66;18565148;32;20052;-62
2022/11/02 09:23:21;;;;;;;2.00;0.85;;;;;;;13.62;100.00;98705.31;18558541;32;20083;-62
2022/11/02 09:33:35;;;;;;;3.58;0.98;;;;;;;13.69;98.88;98706.72;18564394;32;20390;-64
2022/11/02 09:44:03;;;;;;;6.37;0.93;;;;;;;13.80;93.74;98695.88;18564186;32;20061;-64
2022/11/02 09:54:33;;;;;;;2.72;0.80;;;;;;;14.03;95.79;98691.88;18562823;32;20051;-64
2022/11/02 10:04:43;;;;;;;3.70;0.85;;;;;;;14.18;94.96;98683.78;18548393;32;20075;-64
2022/11/02 10:14:56;;;;;;;6.75;0.80;;;;;;;14.34;91.24;98686.50;18562131;32;20399;-64
2022/11/02 10:25:13;;;;;;;3.33;0.80;;;;;;;14.47;93.67;98666.09;18561421;32;20057;-63
2022/11/02 10:35:37;;;;;;;1.73;0.50;;;;;;;14.66;93.10;98658.25;18547714;32;20045;-62
2022/11/02 10:46:32;;;;;;;4.28;0.85;;;;;;;14.95;92.53;98654.97;18560664;32;20376;-62
2022/11/02 10:56:35;;;;;;;3.65;0.62;;;;;;;15.00;91.25;98646.78;18560379;32;20418;-62
2022/11/02 11:06:42;;;;;;;2.53;0.87;;;;;;;14.72;87.83;98636.22;18560191;32;20108;-62
2022/11/02 11:16:55;;;;;;;1.98;0.73;;;;;;;14.43;87.18;98626.94;18559729;32;20086;-62
2022/11/02 11:27:11;;;;;;;3.12;0.80;;;;;;;14.24;87.88;98609.22;18485260;32;20072;-63
2022/11/02 11:37:17;;;;;;;4.62;0.93;;;;;;;14.15;87.23;98605.41;18483927;32;20069;-62
2022/11/02 11:47:29;;;;;;;3.33;0.40;;;;;;;14.12;87.03;98599.72;18483281;32;20126;-62
2022/11/02 11:57:33;;;;;;;3.58;0.75;;;;;;;14.19;88.16;98583.94;18497949;32;20074;-62
2022/11/02 12:08:09;;;;;;;2.00;0.47;;;;;;;14.16;82.90;98579.03;18503412;32;20117;-62
2022/11/02 12:18:51;;;;;;;3.62;0.77;;;;;;;14.12;84.76;98561.63;18502836;32;20068;-62
2022/11/02 12:29:18;;;;;;;3.83;1.00;;;;;;;14.29;85.00;98550.47;18503364;32;20087;-62
2022/11/02 12:39:55;;;;;;;2.97;0.90;;;;;;;14.69;76.51;98540.66;18503057;32;20057;-63
2022/11/02 12:50:37;;;;;;;6.90;1.23;;;;;;;14.73;80.71;98530.84;18502283;32;20053;-62
2022/11/02 13:00:44;;;;;;;2.10;0.65;;;;;;;14.80;79.16;98525.94;18562429;32;20069;-63
2022/11/02 13:10:58;;;;;;;3.55;0.90;;;;;;;14.74;80.80;98525.16;18552080;32;20056;-62
2022/11/02 13:21:03;;;;;;;2.47;0.80;;;;;;;14.65;80.02;98507.75;18565585;32;20338;-63
2022/11/02 13:31:27;;;;;;;3.05;0.82;;;;;;;14.38;83.53;98499.87;18564801;32;20441;-62
2022/11/02 13:42:00;;;;;;;4.50;1.00;;;;;;;14.09;85.92;98494.16;18552001;32;20067;-62
2022/11/02 13:52:13;;;;;;;3.20;0.82;;;;;;;14.00;82.53;98474.88;18547016;32;20056;-63
2022/11/02 14:02:21;;;;;;;3.97;0.70;;;;;;;14.03;81.95;98471.59;18555951;32;20069;-62
2022/11/02 14:12:27;;;;;;;1.42;0.60;;;;;;;13.94;81.78;98470.53;18562671;32;20095;-62
2022/11/02 14:22:32;;;;;;;1.27;0.57;;;;;;;13.76;83.62;98461.00;18548097;32;20045;-62
2022/11/02 14:32:44;;;;;;;2.25;0.60;;;;;;;13.63;84.49;98448.78;18547589;32;20108;-62
2022/11/02 14:42:54;;;;;;;2.20;0.80;;;;;;;13.48;84.99;98449.56;18560853;32;20124;-62
2022/11/02 14:53:02;;;;;;;5.03;0.93;;;;;;;13.31;86.70;98438.94;18546105;32;20100;-62
2022/11/02 15:03:27;;;;;;;2.45;0.50;;;;;;;13.12;89.50;98434.00;18562353;32;20385;-62
2022/11/02 15:13:46;;;;;;;2.92;0.80;;;;;;;12.94;91.68;98423.66;18559540;32;20052;-63
2022/11/02 15:24:12;;;;;;;2.87;0.60;;;;;;;12.91;94.78;98418.72;18558828;32;20425;-62
2022/11/02 15:34:26;;;;;;;1.35;0.50;;;;;;;13.00;94.32;98406.28;18368960;32;20122;-62
2022/11/02 15:45:03;;;;;;;2.15;0.77;;;;;;;12.61;96.55;98407.50;18367926;32;20074;-62
2022/11/02 15:55:35;;;;;;;2.08;0.75;;;;;;;12.16;98.95;98396.16;18367272;32;20119;-62
2022/11/02 16:05:44;;;;;;;2.83;0.62;;;;;;;11.71;100.00;98389.34;18384363;32;20064;-62
2022/11/02 16:15:48;;;;;;;1.85;0.80;;;;;;;11.33;100.00;98378.47;18496911;32;20065;-62
2022/11/02 16:25:55;;;;;;;0.88;0.50;;;;;;;10.97;100.00;98358.38;18429603;32;20080;-62
2022/11/02 16:36:01;;;;;;;4.60;1.48;;;;;;;10.63;100.00;98355.84;18429592;32;20099;-62
2022/11/02 16:46:05;;;;;;;;;;;;;;;10.31;100.00;98349.22;18429008;32;20453;-63
2022/11/02 16:56:30;;;;;;;5.35;2.30;;;;;;;10.01;100.00;98328.03;18414477;32;19956;-64
2022/11/02 17:06:39;;;;;;;4.75;1.92;;;;;;;9.74;100.00;98336.03;18500399;32;20068;-64
2022/11/02 17:17:23;;;;;;;4.13;2.07;;;;;;;9.48;100.00;98335.66;18486927;32;20063;-65
2022/11/02 17:27:31;;;;;;;3.70;1.93;;;;;;;9.25;100.00;98326.69;18233961;32;20123;-64
2022/11/02 17:37:42;;;;;;;3.40;2.53;;;;;;;9.03;100.00;98326.59;18234702;32;20484;-64
2022/11/02 17:47:45;;;;;;;9.17;5.80;;;;;;;8.85;100.00;98332.19;18221891;32;20057;-64
2022/11/02 17:57:49;;;;;;;5.93;3.20;;;;;;;8.64;100.00;98316.44;18311629;32;20396;-64
2022/11/02 18:07:53;;;;;;;4.57;2.70;;;;;;;8.52;100.00;98320.25;18498140;32;20061;-64
2022/11/02 18:17:56;;;;;;;13.23;6.60;;;;;;;8.39;100.00;98314.06;18497265;32;20061;-64
2022/11/02 18:28:01;;;;;;;16.40;8.67;;;;;;;8.24;100.00;98313.75;18496602;32;20065;-64
2022/11/02 18:38:04;;;;;;;6.37;3.30;;;;;;;8.08;100.00;98318.00;18496174;32;20414;-64
2022/11/02 18:48:08;;;;;;;8.03;2.73;;;;;;;7.95;100.00;98319.09;18496034;32;20159;-65
2022/11/02 18:58:11;;;;;;;4.37;2.37;;;;;;;7.81;100.00;98313.12;18539827;31;20349;-64
2022/11/02 19:18:35;;;;;;;10.50;5.60;;;;;;;7.53;100.00;98298.53;18560159;32;20136;-64
2022/11/02 19:28:38;;;;;;;9.03;4.97;;;;;;;7.41;100.00;98297.72;18538832;32;20108;-64
2022/11/02 19:38:41;;;;;;;4.67;3.10;;;;;;;7.28;100.00;98286.13;18559453;32;20077;-64
2022/11/02 19:48:44;;;;;;;4.10;2.37;;;;;;;7.16;100.00;98268.34;18560398;32;20072;-64
2022/11/02 19:58:49;;;;;;;5.63;2.73;;;;;;;7.03;100.00;98270.22;18570512;32;20060;-65
2022/11/02 20:08:53;;;;;;;5.77;3.50;;;;;;;7.01;100.00;98260.75;18555719;32;20428;-64
2022/11/02 20:18:56;;;;;;;6.40;3.23;;;;;;;6.98;100.00;98259.34;18569546;32;20052;-64
2022/11/02 20:29:00;;;;;;;6.77;3.63;;;;;;;6.93;100.00;98249.28;18554564;32;20057;-65
2022/11/02 20:39:03;;;;;;;6.07;3.00;;;;;;;6.83;100.00;98253.59;18554064;32;20049;-64
2022/11/02 20:49:06;;;;;;;5.63;3.03;;;;;;;6.79;100.00;98245.97;18567696;32;20061;-64
2022/11/02 20:59:24;;;;;;;10.27;3.97;;;;;;;6.77;100.00;98250.78;18567061;32;20049;-65
2022/11/02 21:09:26;;;;;;;4.43;3.10;;;;;;;6.73;100.00;98241.53;18566290;32;20406;-64
2022/11/02 21:19:29;;;;;;;3.37;2.50;;;;;;;6.74;100.00;98235.13;18559080;32;20440;-64
2022/11/02 21:29:32;;;;;;;4.37;2.00;;;;;;;6.68;100.00;98232.53;18565274;32;20053;-64
2022/11/02 21:39:36;;;;;;;3.37;2.37;;;;;;;6.53;100.00;98217.63;18564598;32;20048;-64
2022/11/02 21:49:38;;;;;;;5.50;2.73;;;;;;;6.45;100.00;98209.91;18563832;32;20117;-64
2022/11/02 21:59:41;;;;;;;4.67;3.07;;;;;;;6.46;100.00;98216.13;18562933;32;20045;-64
2022/11/02 22:09:43;;;;;;;6.10;3.00;;;;;;;6.39;100.00;98208.16;18548879;32;20044;-64
2022/11/02 22:19:46;;;;;;;6.77;2.67;;;;;;;6.40;100.00;98207.94;18548116;32;20056;-64
2022/11/02 22:29:49;;;;;;;6.17;2.93;;;;;;;6.39;100.00;98213.53;18561539;32;20372;-64
2022/11/02 22:39:52;;;;;;;4.73;3.10;;;;;;;6.28;100.00;98199.81;18561316;32;20369;-64
2022/11/02 22:49:55;;;;;;;3.63;2.87;;;;;;;6.24;100.00;98205.91;18560853;32;20361;-64
2022/11/02 22:59:57;;;;;;;5.47;3.10;;;;;;;6.22;100.00;98189.19;18560404;32;20075;-64
2022/11/02 23:11:19;;;;;;;4.90;2.87;;;;;;;6.17;100.00;98181.00;18553448;32;20362;-64
2022/11/02 23:20:24;;;;;;;3.57;2.30;;;;;;;6.14;100.00;98178.75;18548824;32;20049;-64
2022/11/02 23:40:55;;;;;;;6.80;2.70;;;;;;;6.03;100.00;98137.41;18368952;32;20066;-64
